LIEE/CAG METAR and TAF weather

Enter ICAO airport designator
Station Type Date Time Source
LIEE METAR 2022/12/01 00:20 UTC NOAA

LIEE 010020Z 02003KT CAVOK 06/05 Q1014


Station Type Date Time Source
LIEE Decoded METAR 2022/12/01 00:20 UTC NOAA

Cagliari / Elmas, Italy (LIEE) 39-15N 009-04E 5M
Nov 30, 2022 - 07:20 PM EST / 2022.12.01 0020 UTC
Wind: from the NNE (020 degrees) at 3 MPH (3 KT):0
Visibility: greater than 7 mile(s):0
Temperature: 42 F (6 C)
Dew Point: 41 F (5 C)
Relative Humidity: 93%
Pressure (altimeter): 29.94 in. Hg (1014 hPa)
ob: LIEE 010020Z 02003KT CAVOK 06/05 Q1014
cycle: 0

Station Type Date Time Source
LIEE TAF 2022/11/30 18:21 UTC NOAA

TAF LIEE 301700Z 3018/0118 VRB05KT 9999 FEW030

Example: see airport list